Etusivu
METAR-TAF:

METAR-TAF

Lentoasemat :

Brownwood, Texas, Yhdysvallat

Leveyspiiri: 31-48N, Pituuspiiri: 098-57W, korkeus merenpinnasta: 422 m

Tämänhetkinen sää

Tämä raportti tehtiin 39 minuuttia sitten, kello 22.15 UTC
Tuuli 9 kn etelästä/kaakosta
Lämpötila 27°C
Kosteus 74%
Ilmanpaine 1007 hPa
Näkyvyys: 8.0 km
Muutamia pilviä 2300 ft:n korkeudessa

METAR: KBWD 232215Z AUTO 15009KT 5SM FEW023 27/22 A2974 RMK AO1

Aika: 17:54 (22:54 UTC)


TAF: puuttuu

Säähavainnot ja -ennusteet yli 4000 lentoasemalta (METAR- ja TAF-raportit).

Käytössä olevat sääasemat on merkitty karttaan keltaisilla ja punaisilla pisteillä.

Aseta hiiri pisteen päälle nähdäksesi sääaseman nimen.

Klikkaa sitten nähdäksesi säähavainnot ja -ennusteet.

Kartan vaihtaminen: klikkaa mustalla rastilla varustettuja vihreitä pisteitä, niin voit zoomata sisään; viivalla varustettua vihreää pistettä, niin voit zoomata ulos tai vihreitä nuolia, niin pääset viereisille kartoille.


METAR-TAF: